Portada
METAR-TAF:

METAR-TAF

Aeropuertos :

Aeropuerto de Varsovia-Chopin

Varsovia, Polonia

latitud: 52-10N, longitud: 020-58E, altitud: 106 m

Observación

El informe se hizo hace 19 minutos, a las 07:00 UTC
Viento 5 kt del sureste
Temperatura 19°C
Humedad 56%
Presión 1023 hPa
Visibilidad 10 km o más
sin nubes por debajo de 1500 m y sin presencia de cumulonimbus.

METAR: EPWA 220700Z 14005KT CAVOK 19/10 Q1023 NOSIG

Hora: 09:19 (07:19 UTC)

Pronóstico

El informe se hizo hace 1 hora y 49 minutos, a las 05:30 UTC
Pronóstico válido del 22 a las 06 UTC al 23 a las 06 UTC
Viento 6 kt del este
Visibilidad 10 km o más
sin nubes por debajo de 1500 m y sin presencia de cumulonimbus.
Evolucionando progresivamente
del 22 a las 21 UTC al 22 a las 23 UTC
Viento 10 kt del sur-sureste

TAF: EPWA 220530Z 2206/2306 09006KT CAVOK BECMG 2221/2223 15010KT

Observaciones y pronósticos meteorológicos de más de 4000 aeropuertos (mensajes METAR y TAF).

Los puntos amarillos y rojos representan las estaciones disponibles.

Ponga el ratón en el punto deseado para ver el nombre de la estación.

Haga clic para ver las observaciones y los pronósticos meteorológicos.

Para cambiar el mapa : haga clic en los botones verdes con una cruz de color negro para hacer un zoom, en el botón verde con un guión para alejar o en las flechas verdes para mapas adyacentes.


METAR-TAF: